sensor_id;sensor_type;location;lat;lon;timestamp;P1;durP1;ratioP1;P2;durP2;ratioP2
974;SDS011;6115;49.296;10.602;2023-12-20T00:01:40;70.27;;;14.93;;
974;SDS011;6115;49.296;10.602;2023-12-20T00:06:41;70.07;;;13.97;;
974;SDS011;6115;49.296;10.602;2023-12-20T00:11:41;70.83;;;14.57;;
974;SDS011;6115;49.296;10.602;2023-12-20T00:16:42;69.57;;;14.10;;
974;SDS011;6115;49.296;10.602;2023-12-20T00:21:42;69.67;;;14.13;;
974;SDS011;6115;49.296;10.602;2023-12-20T00:26:43;70.33;;;14.23;;
974;SDS011;6115;49.296;10.602;2023-12-20T00:31:43;70.20;;;14.53;;
974;SDS011;6115;49.296;10.602;2023-12-20T00:36:44;70.43;;;15.17;;
974;SDS011;6115;49.296;10.602;2023-12-20T00:41:45;70.80;;;15.83;;
974;SDS011;6115;49.296;10.602;2023-12-20T00:46:45;70.97;;;14.70;;
974;SDS011;6115;49.296;10.602;2023-12-20T00:51:46;80.43;;;14.77;;
974;SDS011;6115;49.296;10.602;2023-12-20T00:56:47;70.70;;;13.47;;
974;SDS011;6115;49.296;10.602;2023-12-20T01:01:48;72.63;;;14.60;;
974;SDS011;6115;49.296;10.602;2023-12-20T01:06:48;69.37;;;13.60;;
974;SDS011;6115;49.296;10.602;2023-12-20T01:11:49;72.57;;;15.17;;
974;SDS011;6115;49.296;10.602;2023-12-20T01:16:50;72.20;;;14.50;;
974;SDS011;6115;49.296;10.602;2023-12-20T01:21:50;70.07;;;14.07;;
974;SDS011;6115;49.296;10.602;2023-12-20T01:26:51;70.03;;;14.40;;
974;SDS011;6115;49.296;10.602;2023-12-20T01:31:51;71.67;;;14.07;;
974;SDS011;6115;49.296;10.602;2023-12-20T01:36:52;69.90;;;13.90;;
974;SDS011;6115;49.296;10.602;2023-12-20T01:41:52;70.33;;;14.23;;
974;SDS011;6115;49.296;10.602;2023-12-20T01:46:53;69.37;;;13.00;;
974;SDS011;6115;49.296;10.602;2023-12-20T01:51:54;70.73;;;13.57;;
974;SDS011;6115;49.296;10.602;2023-12-20T01:56:55;70.10;;;14.03;;
974;SDS011;6115;49.296;10.602;2023-12-20T02:01:56;70.17;;;13.90;;
974;SDS011;6115;49.296;10.602;2023-12-20T02:06:56;69.60;;;13.40;;
974;SDS011;6115;49.296;10.602;2023-12-20T02:11:58;70.10;;;13.37;;
974;SDS011;6115;49.296;10.602;2023-12-20T02:16:59;69.77;;;14.13;;
974;SDS011;6115;49.296;10.602;2023-12-20T02:22:09;69.87;;;14.00;;
974;SDS011;6115;49.296;10.602;2023-12-20T02:27:12;70.30;;;14.10;;
974;SDS011;6115;49.296;10.602;2023-12-20T02:32:14;69.50;;;13.13;;
974;SDS011;6115;49.296;10.602;2023-12-20T02:37:17;69.70;;;13.70;;
974;SDS011;6115;49.296;10.602;2023-12-20T02:42:17;69.90;;;13.87;;
974;SDS011;6115;49.296;10.602;2023-12-20T02:47:18;70.17;;;13.90;;
974;SDS011;6115;49.296;10.602;2023-12-20T02:52:18;69.40;;;13.60;;
974;SDS011;6115;49.296;10.602;2023-12-20T02:57:19;70.40;;;13.90;;
974;SDS011;6115;49.296;10.602;2023-12-20T03:02:20;69.73;;;13.80;;
974;SDS011;6115;49.296;10.602;2023-12-20T03:07:20;70.30;;;14.50;;
974;SDS011;6115;49.296;10.602;2023-12-20T03:12:21;69.93;;;14.10;;
974;SDS011;6115;49.296;10.602;2023-12-20T03:17:21;70.33;;;14.20;;
974;SDS011;6115;49.296;10.602;2023-12-20T03:22:22;71.47;;;14.60;;
974;SDS011;6115;49.296;10.602;2023-12-20T03:27:23;70.40;;;14.60;;
974;SDS011;6115;49.296;10.602;2023-12-20T03:32:23;70.37;;;14.37;;
974;SDS011;6115;49.296;10.602;2023-12-20T03:37:24;70.27;;;14.00;;
974;SDS011;6115;49.296;10.602;2023-12-20T03:42:24;70.30;;;14.60;;
974;SDS011;6115;49.296;10.602;2023-12-20T03:47:25;70.27;;;14.83;;
974;SDS011;6115;49.296;10.602;2023-12-20T03:52:25;70.47;;;14.47;;
974;SDS011;6115;49.296;10.602;2023-12-20T03:57:26;69.70;;;14.10;;
974;SDS011;6115;49.296;10.602;2023-12-20T04:02:27;70.60;;;14.80;;
974;SDS011;6115;49.296;10.602;2023-12-20T04:07:27;72.50;;;16.23;;
974;SDS011;6115;49.296;10.602;2023-12-20T04:12:28;70.37;;;14.53;;
974;SDS011;6115;49.296;10.602;2023-12-20T04:17:28;71.27;;;14.83;;
974;SDS011;6115;49.296;10.602;2023-12-20T04:22:29;71.03;;;14.80;;
974;SDS011;6115;49.296;10.602;2023-12-20T04:27:29;70.30;;;14.67;;
974;SDS011;6115;49.296;10.602;2023-12-20T04:32:30;70.10;;;14.37;;
974;SDS011;6115;49.296;10.602;2023-12-20T04:37:31;71.30;;;16.10;;
974;SDS011;6115;49.296;10.602;2023-12-20T04:42:32;71.17;;;15.37;;
974;SDS011;6115;49.296;10.602;2023-12-20T04:47:32;71.30;;;16.40;;
974;SDS011;6115;49.296;10.602;2023-12-20T04:52:33;70.50;;;15.20;;
974;SDS011;6115;49.296;10.602;2023-12-20T04:57:34;70.33;;;14.67;;
974;SDS011;6115;49.296;10.602;2023-12-20T05:02:35;70.40;;;15.00;;
974;SDS011;6115;49.296;10.602;2023-12-20T05:07:36;71.40;;;15.40;;
974;SDS011;6115;49.296;10.602;2023-12-20T05:12:37;71.60;;;15.80;;
974;SDS011;6115;49.296;10.602;2023-12-20T05:17:37;71.90;;;16.10;;
974;SDS011;6115;49.296;10.602;2023-12-20T05:22:38;70.57;;;14.73;;
974;SDS011;6115;49.296;10.602;2023-12-20T05:27:41;70.50;;;14.73;;
974;SDS011;6115;49.296;10.602;2023-12-20T05:32:42;70.00;;;14.40;;
974;SDS011;6115;49.296;10.602;2023-12-20T05:37:42;72.00;;;15.30;;
974;SDS011;6115;49.296;10.602;2023-12-20T05:42:43;70.77;;;14.93;;
974;SDS011;6115;49.296;10.602;2023-12-20T05:47:43;71.23;;;15.50;;
974;SDS011;6115;49.296;10.602;2023-12-20T05:52:44;70.70;;;15.30;;
974;SDS011;6115;49.296;10.602;2023-12-20T05:57:45;71.60;;;15.83;;
974;SDS011;6115;49.296;10.602;2023-12-20T06:02:45;70.67;;;15.37;;
974;SDS011;6115;49.296;10.602;2023-12-20T06:07:46;71.57;;;16.50;;
974;SDS011;6115;49.296;10.602;2023-12-20T06:12:48;71.27;;;16.50;;
974;SDS011;6115;49.296;10.602;2023-12-20T06:17:50;72.07;;;17.80;;
974;SDS011;6115;49.296;10.602;2023-12-20T06:22:50;72.27;;;17.43;;
974;SDS011;6115;49.296;10.602;2023-12-20T06:27:51;73.80;;;18.40;;
974;SDS011;6115;49.296;10.602;2023-12-20T06:32:51;73.07;;;18.47;;
974;SDS011;6115;49.296;10.602;2023-12-20T06:37:52;72.27;;;17.87;;
974;SDS011;6115;49.296;10.602;2023-12-20T06:42:53;73.70;;;18.90;;
974;SDS011;6115;49.296;10.602;2023-12-20T06:47:54;72.80;;;18.83;;
974;SDS011;6115;49.296;10.602;2023-12-20T06:52:55;71.80;;;17.73;;
974;SDS011;6115;49.296;10.602;2023-12-20T06:57:55;73.10;;;18.73;;
974;SDS011;6115;49.296;10.602;2023-12-20T07:02:56;72.30;;;18.57;;
974;SDS011;6115;49.296;10.602;2023-12-20T07:07:56;72.37;;;18.50;;
974;SDS011;6115;49.296;10.602;2023-12-20T07:12:57;72.70;;;18.63;;
974;SDS011;6115;49.296;10.602;2023-12-20T07:17:57;71.70;;;17.80;;
974;SDS011;6115;49.296;10.602;2023-12-20T07:23:00;72.50;;;18.70;;
974;SDS011;6115;49.296;10.602;2023-12-20T07:28:01;73.40;;;19.37;;
974;SDS011;6115;49.296;10.602;2023-12-20T07:33:01;73.27;;;19.60;;
974;SDS011;6115;49.296;10.602;2023-12-20T07:38:02;73.17;;;19.23;;
974;SDS011;6115;49.296;10.602;2023-12-20T07:43:03;72.27;;;18.53;;
974;SDS011;6115;49.296;10.602;2023-12-20T07:48:04;73.47;;;19.20;;
974;SDS011;6115;49.296;10.602;2023-12-20T07:53:06;72.70;;;18.80;;
974;SDS011;6115;49.296;10.602;2023-12-20T07:58:07;74.60;;;19.97;;
974;SDS011;6115;49.296;10.602;2023-12-20T08:03:07;73.80;;;20.43;;
974;SDS011;6115;49.296;10.602;2023-12-20T08:08:08;74.27;;;20.30;;
974;SDS011;6115;49.296;10.602;2023-12-20T08:13:08;73.27;;;19.57;;
974;SDS011;6115;49.296;10.602;2023-12-20T08:18:09;73.00;;;19.40;;
974;SDS011;6115;49.296;10.602;2023-12-20T08:23:10;73.70;;;18.70;;
974;SDS011;6115;49.296;10.602;2023-12-20T08:28:10;72.93;;;19.27;;
974;SDS011;6115;49.296;10.602;2023-12-20T08:33:11;73.77;;;18.67;;
974;SDS011;6115;49.296;10.602;2023-12-20T08:38:12;75.77;;;19.80;;
974;SDS011;6115;49.296;10.602;2023-12-20T08:43:13;73.87;;;19.30;;
974;SDS011;6115;49.296;10.602;2023-12-20T08:48:14;74.83;;;19.40;;
974;SDS011;6115;49.296;10.602;2023-12-20T08:53:14;73.07;;;18.43;;
974;SDS011;6115;49.296;10.602;2023-12-20T08:58:16;72.67;;;18.10;;
974;SDS011;6115;49.296;10.602;2023-12-20T09:03:17;72.97;;;17.80;;
974;SDS011;6115;49.296;10.602;2023-12-20T09:08:17;72.10;;;17.73;;
974;SDS011;6115;49.296;10.602;2023-12-20T09:13:18;72.23;;;17.93;;
974;SDS011;6115;49.296;10.602;2023-12-20T09:18:19;71.87;;;17.53;;
974;SDS011;6115;49.296;10.602;2023-12-20T09:23:19;71.47;;;17.63;;
974;SDS011;6115;49.296;10.602;2023-12-20T09:28:20;71.27;;;18.03;;
974;SDS011;6115;49.296;10.602;2023-12-20T09:33:20;72.30;;;19.07;;
974;SDS011;6115;49.296;10.602;2023-12-20T09:38:21;76.63;;;18.87;;
974;SDS011;6115;49.296;10.602;2023-12-20T09:43:23;72.20;;;19.27;;
974;SDS011;6115;49.296;10.602;2023-12-20T09:48:25;72.10;;;20.27;;
974;SDS011;6115;49.296;10.602;2023-12-20T09:53:27;73.37;;;25.93;;
974;SDS011;6115;49.296;10.602;2023-12-20T09:58:30;73.00;;;23.40;;
974;SDS011;6115;49.296;10.602;2023-12-20T10:03:31;73.20;;;21.50;;
974;SDS011;6115;49.296;10.602;2023-12-20T10:08:32;72.20;;;20.57;;
974;SDS011;6115;49.296;10.602;2023-12-20T10:13:32;70.90;;;17.53;;
974;SDS011;6115;49.296;10.602;2023-12-20T10:18:33;72.50;;;18.47;;
974;SDS011;6115;49.296;10.602;2023-12-20T10:23:34;70.10;;;17.90;;
974;SDS011;6115;49.296;10.602;2023-12-20T10:28:34;70.60;;;16.70;;
974;SDS011;6115;49.296;10.602;2023-12-20T10:33:35;70.30;;;17.33;;
974;SDS011;6115;49.296;10.602;2023-12-20T10:38:36;70.90;;;17.57;;
974;SDS011;6115;49.296;10.602;2023-12-20T10:43:39;70.40;;;17.20;;
974;SDS011;6115;49.296;10.602;2023-12-20T10:48:40;70.50;;;18.53;;
974;SDS011;6115;49.296;10.602;2023-12-20T10:53:42;70.37;;;17.60;;
974;SDS011;6115;49.296;10.602;2023-12-20T10:58:43;71.60;;;17.97;;
974;SDS011;6115;49.296;10.602;2023-12-20T11:03:50;70.70;;;16.00;;
974;SDS011;6115;49.296;10.602;2023-12-20T11:08:58;70.13;;;16.93;;
974;SDS011;6115;49.296;10.602;2023-12-20T11:14:23;77.53;;;17.50;;
974;SDS011;6115;49.296;10.602;2023-12-20T11:19:27;70.97;;;17.23;;
974;SDS011;6115;49.296;10.602;2023-12-20T11:24:28;72.60;;;17.13;;
974;SDS011;6115;49.296;10.602;2023-12-20T11:29:37;73.40;;;17.60;;
974;SDS011;6115;49.296;10.602;2023-12-20T11:34:38;70.97;;;18.27;;
974;SDS011;6115;49.296;10.602;2023-12-20T11:39:42;72.67;;;17.63;;
974;SDS011;6115;49.296;10.602;2023-12-20T11:44:43;70.83;;;16.27;;
974;SDS011;6115;49.296;10.602;2023-12-20T11:49:47;70.17;;;16.03;;
974;SDS011;6115;49.296;10.602;2023-12-20T11:54:48;71.37;;;17.00;;
974;SDS011;6115;49.296;10.602;2023-12-20T11:59:49;73.40;;;19.07;;
974;SDS011;6115;49.296;10.602;2023-12-20T12:04:50;70.47;;;17.20;;
974;SDS011;6115;49.296;10.602;2023-12-20T12:09:50;70.47;;;17.50;;
974;SDS011;6115;49.296;10.602;2023-12-20T12:14:51;72.07;;;16.50;;
974;SDS011;6115;49.296;10.602;2023-12-20T12:19:52;72.60;;;15.60;;
974;SDS011;6115;49.296;10.602;2023-12-20T12:25:09;69.90;;;16.73;;
974;SDS011;6115;49.296;10.602;2023-12-20T12:30:11;72.77;;;17.30;;
974;SDS011;6115;49.296;10.602;2023-12-20T12:35:13;71.97;;;16.80;;
974;SDS011;6115;49.296;10.602;2023-12-20T12:40:15;71.33;;;18.97;;
974;SDS011;6115;49.296;10.602;2023-12-20T12:45:16;70.80;;;16.67;;
974;SDS011;6115;49.296;10.602;2023-12-20T12:50:17;70.37;;;16.60;;
974;SDS011;6115;49.296;10.602;2023-12-20T12:55:18;71.20;;;16.90;;
974;SDS011;6115;49.296;10.602;2023-12-20T13:00:18;72.90;;;18.13;;
974;SDS011;6115;49.296;10.602;2023-12-20T13:05:20;70.40;;;16.27;;
974;SDS011;6115;49.296;10.602;2023-12-20T13:10:24;78.47;;;22.67;;
974;SDS011;6115;49.296;10.602;2023-12-20T13:15:25;70.80;;;16.27;;
974;SDS011;6115;49.296;10.602;2023-12-20T13:20:25;69.80;;;16.97;;
974;SDS011;6115;49.296;10.602;2023-12-20T13:25:26;70.30;;;16.60;;
974;SDS011;6115;49.296;10.602;2023-12-20T13:30:26;69.80;;;16.07;;
974;SDS011;6115;49.296;10.602;2023-12-20T13:35:27;76.77;;;18.00;;
974;SDS011;6115;49.296;10.602;2023-12-20T13:40:28;69.50;;;15.57;;
974;SDS011;6115;49.296;10.602;2023-12-20T13:45:28;71.10;;;16.73;;
974;SDS011;6115;49.296;10.602;2023-12-20T13:50:29;70.97;;;17.00;;
974;SDS011;6115;49.296;10.602;2023-12-20T13:55:29;69.87;;;15.50;;
974;SDS011;6115;49.296;10.602;2023-12-20T14:00:30;71.57;;;15.90;;
974;SDS011;6115;49.296;10.602;2023-12-20T14:05:31;70.73;;;15.70;;
974;SDS011;6115;49.296;10.602;2023-12-20T14:10:31;72.10;;;18.17;;
974;SDS011;6115;49.296;10.602;2023-12-20T14:15:32;70.03;;;15.87;;
974;SDS011;6115;49.296;10.602;2023-12-20T14:20:36;71.53;;;16.70;;
974;SDS011;6115;49.296;10.602;2023-12-20T14:25:39;70.80;;;16.80;;
974;SDS011;6115;49.296;10.602;2023-12-20T14:30:41;70.30;;;15.40;;
974;SDS011;6115;49.296;10.602;2023-12-20T14:35:41;72.13;;;17.50;;
974;SDS011;6115;49.296;10.602;2023-12-20T14:40:44;71.73;;;17.53;;
974;SDS011;6115;49.296;10.602;2023-12-20T14:45:44;70.37;;;16.20;;
974;SDS011;6115;49.296;10.602;2023-12-20T14:50:45;72.27;;;17.43;;
974;SDS011;6115;49.296;10.602;2023-12-20T14:55:48;71.13;;;16.97;;
974;SDS011;6115;49.296;10.602;2023-12-20T15:00:50;70.90;;;17.10;;
974;SDS011;6115;49.296;10.602;2023-12-20T15:05:51;70.57;;;15.83;;
974;SDS011;6115;49.296;10.602;2023-12-20T15:10:51;70.60;;;15.87;;
974;SDS011;6115;49.296;10.602;2023-12-20T15:15:52;76.83;;;15.90;;
974;SDS011;6115;49.296;10.602;2023-12-20T15:20:53;70.53;;;16.20;;
974;SDS011;6115;49.296;10.602;2023-12-20T15:25:53;70.80;;;17.30;;
974;SDS011;6115;49.296;10.602;2023-12-20T15:30:54;70.67;;;17.00;;
974;SDS011;6115;49.296;10.602;2023-12-20T15:35:54;70.50;;;16.63;;
974;SDS011;6115;49.296;10.602;2023-12-20T15:40:55;70.03;;;15.70;;
974;SDS011;6115;49.296;10.602;2023-12-20T15:45:55;70.27;;;16.20;;
974;SDS011;6115;49.296;10.602;2023-12-20T15:50:56;71.47;;;16.77;;
974;SDS011;6115;49.296;10.602;2023-12-20T15:55:57;69.97;;;16.17;;
974;SDS011;6115;49.296;10.602;2023-12-20T16:00:58;69.80;;;16.07;;
974;SDS011;6115;49.296;10.602;2023-12-20T16:05:59;70.77;;;16.47;;
974;SDS011;6115;49.296;10.602;2023-12-20T16:11:00;70.57;;;18.27;;
974;SDS011;6115;49.296;10.602;2023-12-20T16:16:01;71.80;;;17.43;;
974;SDS011;6115;49.296;10.602;2023-12-20T16:21:03;71.67;;;18.00;;
974;SDS011;6115;49.296;10.602;2023-12-20T16:26:03;71.90;;;16.30;;
974;SDS011;6115;49.296;10.602;2023-12-20T16:31:04;70.57;;;15.93;;
974;SDS011;6115;49.296;10.602;2023-12-20T16:36:05;71.87;;;16.60;;
974;SDS011;6115;49.296;10.602;2023-12-20T16:41:05;70.43;;;15.77;;
974;SDS011;6115;49.296;10.602;2023-12-20T16:46:06;70.70;;;15.80;;
974;SDS011;6115;49.296;10.602;2023-12-20T16:51:08;70.70;;;15.23;;
974;SDS011;6115;49.296;10.602;2023-12-20T16:56:08;72.63;;;15.47;;
974;SDS011;6115;49.296;10.602;2023-12-20T17:01:09;72.00;;;15.97;;
974;SDS011;6115;49.296;10.602;2023-12-20T17:06:10;71.40;;;16.40;;
974;SDS011;6115;49.296;10.602;2023-12-20T17:11:11;71.90;;;17.20;;
974;SDS011;6115;49.296;10.602;2023-12-20T17:16:11;70.27;;;15.60;;
974;SDS011;6115;49.296;10.602;2023-12-20T17:21:12;70.70;;;16.00;;
974;SDS011;6115;49.296;10.602;2023-12-20T17:26:13;71.07;;;17.10;;
974;SDS011;6115;49.296;10.602;2023-12-20T17:31:13;72.57;;;17.03;;
974;SDS011;6115;49.296;10.602;2023-12-20T17:36:14;70.67;;;16.60;;
974;SDS011;6115;49.296;10.602;2023-12-20T17:41:16;70.60;;;16.93;;
974;SDS011;6115;49.296;10.602;2023-12-20T17:46:17;71.50;;;17.00;;
974;SDS011;6115;49.296;10.602;2023-12-20T17:51:17;70.60;;;16.03;;
974;SDS011;6115;49.296;10.602;2023-12-20T17:56:18;70.30;;;16.47;;
974;SDS011;6115;49.296;10.602;2023-12-20T18:01:19;70.53;;;16.30;;
974;SDS011;6115;49.296;10.602;2023-12-20T18:06:19;70.40;;;15.80;;
974;SDS011;6115;49.296;10.602;2023-12-20T18:11:20;74.23;;;21.73;;
974;SDS011;6115;49.296;10.602;2023-12-20T18:16:21;69.70;;;15.03;;
974;SDS011;6115;49.296;10.602;2023-12-20T18:21:21;70.40;;;14.50;;
974;SDS011;6115;49.296;10.602;2023-12-20T18:26:22;69.83;;;14.43;;
974;SDS011;6115;49.296;10.602;2023-12-20T18:31:23;70.77;;;14.67;;
974;SDS011;6115;49.296;10.602;2023-12-20T18:36:23;71.17;;;14.27;;
974;SDS011;6115;49.296;10.602;2023-12-20T18:41:24;70.00;;;14.37;;
974;SDS011;6115;49.296;10.602;2023-12-20T18:46:24;70.10;;;14.20;;
974;SDS011;6115;49.296;10.602;2023-12-20T18:51:25;70.60;;;15.33;;
974;SDS011;6115;49.296;10.602;2023-12-20T18:56:26;70.10;;;14.47;;
974;SDS011;6115;49.296;10.602;2023-12-20T19:01:27;70.03;;;14.40;;
974;SDS011;6115;49.296;10.602;2023-12-20T19:06:27;69.37;;;13.90;;
974;SDS011;6115;49.296;10.602;2023-12-20T19:11:28;70.30;;;14.57;;
974;SDS011;6115;49.296;10.602;2023-12-20T19:16:29;70.27;;;14.83;;
974;SDS011;6115;49.296;10.602;2023-12-20T19:21:29;70.97;;;15.40;;
974;SDS011;6115;49.296;10.602;2023-12-20T19:26:30;70.47;;;14.63;;
974;SDS011;6115;49.296;10.602;2023-12-20T19:31:30;69.87;;;14.57;;
974;SDS011;6115;49.296;10.602;2023-12-20T19:36:31;69.60;;;14.20;;
974;SDS011;6115;49.296;10.602;2023-12-20T19:41:31;72.80;;;14.60;;
974;SDS011;6115;49.296;10.602;2023-12-20T19:46:32;71.00;;;14.53;;
974;SDS011;6115;49.296;10.602;2023-12-20T19:51:32;70.40;;;14.40;;
974;SDS011;6115;49.296;10.602;2023-12-20T19:56:33;71.80;;;15.77;;
974;SDS011;6115;49.296;10.602;2023-12-20T20:01:34;69.97;;;14.30;;
974;SDS011;6115;49.296;10.602;2023-12-20T20:06:39;69.57;;;13.87;;
974;SDS011;6115;49.296;10.602;2023-12-20T20:11:39;70.27;;;14.63;;
974;SDS011;6115;49.296;10.602;2023-12-20T20:16:41;73.77;;;15.40;;
974;SDS011;6115;49.296;10.602;2023-12-20T20:21:43;70.13;;;15.07;;
974;SDS011;6115;49.296;10.602;2023-12-20T20:26:43;70.70;;;14.77;;
974;SDS011;6115;49.296;10.602;2023-12-20T20:31:44;70.60;;;14.47;;
974;SDS011;6115;49.296;10.602;2023-12-20T20:36:45;70.17;;;14.37;;
974;SDS011;6115;49.296;10.602;2023-12-20T20:41:45;69.93;;;13.80;;
974;SDS011;6115;49.296;10.602;2023-12-20T20:46:46;70.77;;;14.60;;
974;SDS011;6115;49.296;10.602;2023-12-20T20:51:46;70.60;;;15.13;;
974;SDS011;6115;49.296;10.602;2023-12-20T20:56:47;72.20;;;14.80;;
974;SDS011;6115;49.296;10.602;2023-12-20T21:01:48;71.53;;;16.37;;
974;SDS011;6115;49.296;10.602;2023-12-20T21:06:48;72.27;;;15.17;;
974;SDS011;6115;49.296;10.602;2023-12-20T21:11:49;70.40;;;14.77;;
974;SDS011;6115;49.296;10.602;2023-12-20T21:16:49;69.97;;;14.20;;
974;SDS011;6115;49.296;10.602;2023-12-20T21:21:50;70.30;;;14.60;;
974;SDS011;6115;49.296;10.602;2023-12-20T21:26:51;70.43;;;15.37;;
974;SDS011;6115;49.296;10.602;2023-12-20T21:31:51;69.90;;;14.67;;
974;SDS011;6115;49.296;10.602;2023-12-20T21:36:53;70.27;;;14.80;;
974;SDS011;6115;49.296;10.602;2023-12-20T21:41:54;70.43;;;14.70;;
974;SDS011;6115;49.296;10.602;2023-12-20T21:46:55;72.97;;;15.20;;
974;SDS011;6115;49.296;10.602;2023-12-20T21:51:56;71.37;;;15.80;;
974;SDS011;6115;49.296;10.602;2023-12-20T21:56:56;71.37;;;15.50;;
974;SDS011;6115;49.296;10.602;2023-12-20T22:01:57;69.57;;;15.00;;
974;SDS011;6115;49.296;10.602;2023-12-20T22:06:57;71.43;;;16.83;;
974;SDS011;6115;49.296;10.602;2023-12-20T22:11:58;70.57;;;16.00;;
974;SDS011;6115;49.296;10.602;2023-12-20T22:17:00;70.73;;;16.10;;
974;SDS011;6115;49.296;10.602;2023-12-20T22:22:01;74.53;;;15.90;;
974;SDS011;6115;49.296;10.602;2023-12-20T22:27:02;70.93;;;15.83;;
974;SDS011;6115;49.296;10.602;2023-12-20T22:32:02;74.73;;;16.80;;
974;SDS011;6115;49.296;10.602;2023-12-20T22:37:03;71.20;;;15.77;;
974;SDS011;6115;49.296;10.602;2023-12-20T22:42:04;70.47;;;15.70;;
974;SDS011;6115;49.296;10.602;2023-12-20T22:47:05;69.80;;;15.10;;
974;SDS011;6115;49.296;10.602;2023-12-20T22:52:05;79.70;;;16.47;;
974;SDS011;6115;49.296;10.602;2023-12-20T22:57:06;70.30;;;16.07;;
974;SDS011;6115;49.296;10.602;2023-12-20T23:02:08;70.47;;;16.23;;
974;SDS011;6115;49.296;10.602;2023-12-20T23:07:10;70.40;;;16.13;;
974;SDS011;6115;49.296;10.602;2023-12-20T23:12:11;70.30;;;16.00;;
974;SDS011;6115;49.296;10.602;2023-12-20T23:17:11;70.27;;;15.20;;
974;SDS011;6115;49.296;10.602;2023-12-20T23:22:12;69.90;;;15.33;;
974;SDS011;6115;49.296;10.602;2023-12-20T23:27:13;69.77;;;14.70;;
974;SDS011;6115;49.296;10.602;2023-12-20T23:32:13;71.80;;;15.87;;
974;SDS011;6115;49.296;10.602;2023-12-20T23:37:14;74.70;;;17.47;;
974;SDS011;6115;49.296;10.602;2023-12-20T23:42:14;70.60;;;15.80;;
974;SDS011;6115;49.296;10.602;2023-12-20T23:47:17;69.97;;;15.37;;
974;SDS011;6115;49.296;10.602;2023-12-20T23:52:17;71.07;;;16.63;;
974;SDS011;6115;49.296;10.602;2023-12-20T23:57:18;70.30;;;17.17;;
